createdAt,value
2023-02-07T00:00:57.106Z,7.30
2023-02-07T00:03:24.851Z,7.22
2023-02-07T00:05:52.608Z,7.29
2023-02-07T00:08:20.309Z,7.27
2023-02-07T00:10:48.046Z,7.26
2023-02-07T00:13:15.752Z,7.27
2023-02-07T00:15:44.829Z,7.26
2023-02-07T00:18:12.543Z,7.24
2023-02-07T00:20:40.293Z,7.24
2023-02-07T00:23:08.003Z,7.19
2023-02-07T00:25:36.049Z,7.23
2023-02-07T00:28:04.026Z,7.21
2023-02-07T00:30:31.834Z,7.19
2023-02-07T00:33:00.915Z,7.19
2023-02-07T00:35:28.640Z,7.17
2023-02-07T00:37:56.352Z,7.16
2023-02-07T00:40:24.193Z,7.14
2023-02-07T00:42:51.930Z,7.14
2023-02-07T00:45:19.603Z,7.14
2023-02-07T00:47:47.326Z,7.11
2023-02-07T00:50:16.607Z,7.10
2023-02-07T00:52:44.377Z,7.07
2023-02-07T00:55:12.135Z,7.07
2023-02-07T00:57:39.812Z,7.08
2023-02-07T01:00:10.878Z,7.07
2023-02-07T01:02:38.636Z,7.04
2023-02-07T01:05:07.138Z,7.03
2023-02-07T01:07:36.517Z,6.98
2023-02-07T01:10:05.042Z,7.01
2023-02-07T01:12:32.802Z,6.99
2023-02-07T01:15:01.028Z,6.98
2023-02-07T01:17:28.846Z,6.97
2023-02-07T01:19:58.530Z,6.95
2023-02-07T01:22:26.376Z,6.96
2023-02-07T01:24:56.321Z,6.95
2023-02-07T01:27:24.682Z,6.92
2023-02-07T01:29:52.674Z,6.91
2023-02-07T01:32:20.385Z,6.90
2023-02-07T01:34:48.143Z,6.90
2023-02-07T01:37:15.871Z,6.89
2023-02-07T01:39:43.576Z,6.88
2023-02-07T01:42:15.068Z,6.87
2023-02-07T01:45:04.713Z,6.86
2023-02-07T01:47:34.030Z,6.86
2023-02-07T01:50:02.347Z,6.83
2023-02-07T01:52:34.944Z,6.82
2023-02-07T01:55:07.799Z,6.81
2023-02-07T01:57:37.803Z,6.81
2023-02-07T02:00:07.073Z,6.80
2023-02-07T02:02:37.716Z,6.79
2023-02-07T02:05:06.458Z,6.74
2023-02-07T02:07:35.834Z,6.76
2023-02-07T02:10:03.582Z,6.77
2023-02-07T02:12:52.588Z,6.76
2023-02-07T02:15:32.555Z,6.76
2023-02-07T02:18:24.110Z,6.74
2023-02-07T02:21:29.296Z,6.74
2023-02-07T02:24:22.449Z,6.72
2023-02-07T02:27:00.092Z,6.70
2023-02-07T02:30:14.020Z,6.68
2023-02-07T02:33:02.055Z,6.69
2023-02-07T02:35:36.596Z,6.68
2023-02-07T02:38:14.296Z,6.67
2023-02-07T02:40:50.638Z,6.67
2023-02-07T02:43:27.069Z,6.66
2023-02-07T02:45:57.997Z,6.63
2023-02-07T02:48:28.432Z,6.63
2023-02-07T02:50:56.786Z,6.62
2023-02-07T02:53:24.697Z,6.63
2023-02-07T02:56:30.202Z,6.61
2023-02-07T02:59:25.009Z,6.60
2023-02-07T03:02:00.567Z,6.58
2023-02-07T03:04:55.022Z,6.57
2023-02-07T03:07:42.129Z,6.55
2023-02-07T03:10:19.900Z,6.51
2023-02-07T03:12:57.845Z,6.51
2023-02-07T03:15:34.397Z,6.49
2023-02-07T03:18:08.916Z,6.49
2023-02-07T03:20:43.202Z,6.47
2023-02-07T03:23:13.015Z,6.46
2023-02-07T03:25:42.735Z,6.43
2023-02-07T03:28:12.647Z,6.44
2023-02-07T03:30:43.991Z,6.42
2023-02-07T03:33:15.051Z,6.42
2023-02-07T03:35:50.723Z,6.41
2023-02-07T03:38:18.793Z,6.41
2023-02-07T03:40:50.002Z,6.37
2023-02-07T03:43:21.655Z,6.36
2023-02-07T03:45:49.407Z,6.35
2023-02-07T03:48:17.126Z,6.35
2023-02-07T03:50:47.657Z,6.33
2023-02-07T03:53:15.420Z,6.33
2023-02-07T03:55:43.111Z,6.30
2023-02-07T03:58:11.003Z,6.29
2023-02-07T04:00:38.962Z,6.28
2023-02-07T04:03:07.589Z,6.26
2023-02-07T04:05:35.455Z,6.28
2023-02-07T04:08:05.032Z,6.27
2023-02-07T04:10:32.758Z,6.26
2023-02-07T04:13:00.443Z,6.24
2023-02-07T04:15:28.390Z,6.23
2023-02-07T04:17:56.061Z,6.21
2023-02-07T04:20:23.810Z,6.20
2023-02-07T04:22:51.494Z,6.20
2023-02-07T04:25:20.595Z,6.19
2023-02-07T04:27:48.369Z,6.19
2023-02-07T04:30:16.119Z,6.17
2023-02-07T04:32:43.851Z,6.16
2023-02-07T04:35:11.558Z,6.17
2023-02-07T04:37:40.637Z,6.15
2023-02-07T04:40:09.486Z,6.14
2023-02-07T04:42:38.556Z,6.14
2023-02-07T04:45:06.908Z,6.13
2023-02-07T04:47:34.625Z,6.13
2023-02-07T04:50:02.399Z,6.13
2023-02-07T04:52:30.084Z,6.11
2023-02-07T04:54:57.815Z,6.11
2023-02-07T04:57:25.543Z,6.10
2023-02-07T04:59:54.631Z,6.09
2023-02-07T05:02:22.364Z,6.09
2023-02-07T05:04:50.102Z,6.07
2023-02-07T05:07:17.889Z,6.04
2023-02-07T05:09:45.576Z,6.03
2023-02-07T05:12:13.715Z,6.01
2023-02-07T05:14:41.425Z,6.02
2023-02-07T05:17:11.592Z,6.02
2023-02-07T05:19:39.337Z,5.99
2023-02-07T05:22:07.062Z,5.99
2023-02-07T05:24:34.767Z,5.98
2023-02-07T05:27:02.481Z,5.97
2023-02-07T05:29:30.263Z,5.95
2023-02-07T05:32:15.692Z,5.93
2023-02-07T05:34:44.740Z,5.94
2023-02-07T05:37:12.479Z,5.93
2023-02-07T05:39:40.189Z,5.92
2023-02-07T05:42:07.930Z,5.91
2023-02-07T05:44:35.633Z,5.91
2023-02-07T05:47:03.383Z,5.90
2023-02-07T05:49:31.142Z,5.89
2023-02-07T05:52:01.527Z,5.89
2023-02-07T05:54:29.203Z,5.87
2023-02-07T05:56:56.943Z,5.87
2023-02-07T05:59:24.682Z,5.85
2023-02-07T06:01:52.384Z,5.77
2023-02-07T06:04:20.179Z,5.84
2023-02-07T06:06:47.940Z,5.89
2023-02-07T06:09:17.151Z,6.02
2023-02-07T06:11:44.928Z,6.16
2023-02-07T06:14:12.663Z,6.31
2023-02-07T06:16:40.320Z,6.47
2023-02-07T06:19:08.019Z,6.58
2023-02-07T06:21:46.098Z,6.74
2023-02-07T06:24:14.413Z,6.90
2023-02-07T06:26:44.349Z,7.04
2023-02-07T06:29:12.091Z,7.08
2023-02-07T06:31:39.964Z,7.00
2023-02-07T06:34:07.840Z,6.90
2023-02-07T06:36:35.639Z,6.71
2023-02-07T06:39:03.518Z,6.58
2023-02-07T06:41:31.339Z,6.46
2023-02-07T06:44:00.401Z,6.39
2023-02-07T06:46:28.176Z,6.33
2023-02-07T06:48:55.967Z,6.28
2023-02-07T06:51:23.796Z,6.22
2023-02-07T06:53:51.479Z,6.17
2023-02-07T06:56:19.181Z,6.11
2023-02-07T06:58:46.953Z,6.10
2023-02-07T07:01:20.087Z,6.05
2023-02-07T07:03:48.087Z,6.01
2023-02-07T07:06:15.781Z,6.00
2023-02-07T07:08:43.491Z,5.97
2023-02-07T07:11:11.169Z,5.94
2023-02-07T07:13:39.012Z,5.86
2023-02-07T07:16:07.366Z,5.78
2023-02-07T07:18:38.379Z,5.75
2023-02-07T07:21:07.231Z,5.73
2023-02-07T07:23:35.148Z,5.67
2023-02-07T07:26:03.030Z,5.70
2023-02-07T07:28:31.102Z,5.69
2023-02-07T07:31:03.724Z,5.66
2023-02-07T07:33:31.527Z,5.66
2023-02-07T07:36:01.147Z,5.62
2023-02-07T07:38:29.400Z,5.64
2023-02-07T07:40:57.341Z,5.64
2023-02-07T07:43:25.372Z,5.63
2023-02-07T07:45:54.587Z,5.61
2023-02-07T07:48:23.263Z,5.59
2023-02-07T07:50:51.463Z,5.58
2023-02-07T07:53:21.384Z,5.56
2023-02-07T07:55:53.616Z,5.55
2023-02-07T07:58:22.818Z,5.54
2023-02-07T08:00:51.351Z,5.54
2023-02-07T08:03:20.421Z,5.52
2023-02-07T08:05:48.808Z,5.49
2023-02-07T08:08:17.301Z,5.53
2023-02-07T08:10:46.660Z,5.46
2023-02-07T08:13:14.559Z,5.49
2023-02-07T08:15:42.283Z,5.49
2023-02-07T08:18:10.333Z,5.49
2023-02-07T08:20:38.359Z,5.48
2023-02-07T08:23:06.270Z,5.48
2023-02-07T08:25:34.009Z,5.49
2023-02-07T08:28:04.609Z,5.48
2023-02-07T08:30:32.971Z,5.46
2023-02-07T08:33:00.813Z,5.46
2023-02-07T08:35:28.761Z,5.34
2023-02-07T08:37:58.287Z,5.35
2023-02-07T08:40:26.726Z,5.35
2023-02-07T08:42:54.577Z,5.38
2023-02-07T08:45:23.779Z,5.37
2023-02-07T08:47:51.632Z,5.39
2023-02-07T08:50:20.040Z,5.38
2023-02-07T08:52:47.820Z,5.39
2023-02-07T08:55:15.719Z,5.39
2023-02-07T08:57:43.430Z,5.38
2023-02-07T09:00:12.578Z,5.39
2023-02-07T09:02:43.413Z,5.41
2023-02-07T09:05:11.707Z,5.51
2023-02-07T09:07:39.700Z,5.61
2023-02-07T09:10:09.392Z,5.77
2023-02-07T09:12:38.242Z,5.93
2023-02-07T09:15:07.062Z,6.09
2023-02-07T09:17:34.824Z,6.22
2023-02-07T09:20:04.541Z,6.38
2023-02-07T09:22:33.094Z,6.56
2023-02-07T09:25:00.857Z,6.68
2023-02-07T09:27:28.596Z,6.79
2023-02-07T09:29:56.324Z,6.92
2023-02-07T09:32:24.057Z,7.07
2023-02-07T09:34:52.387Z,7.16
2023-02-07T09:37:21.509Z,7.23
2023-02-07T09:39:49.253Z,7.22
2023-02-07T09:42:28.998Z,7.10
2023-02-07T09:45:02.408Z,6.93
2023-02-07T09:47:33.576Z,6.75
2023-02-07T09:50:07.093Z,6.60
2023-02-07T09:52:41.982Z,6.48
2023-02-07T09:55:19.127Z,6.38
2023-02-07T09:57:49.860Z,6.30
2023-02-07T10:00:22.828Z,6.25
2023-02-07T10:02:57.572Z,6.20
2023-02-07T10:05:30.893Z,6.11
2023-02-07T10:08:00.012Z,6.09
2023-02-07T10:10:36.833Z,6.03
2023-02-07T10:13:18.993Z,6.01
2023-02-07T10:15:57.717Z,5.99
2023-02-07T10:18:37.089Z,5.98
2023-02-07T10:21:09.693Z,5.92
2023-02-07T10:23:49.829Z,5.94
2023-02-07T10:26:28.134Z,5.94
2023-02-07T10:29:09.157Z,5.94
2023-02-07T10:31:39.706Z,5.94
2023-02-07T10:34:14.655Z,5.92
2023-02-07T10:36:46.497Z,5.92
2023-02-07T10:39:22.865Z,5.89
2023-02-07T10:41:52.152Z,5.92
2023-02-07T10:44:21.381Z,5.91
2023-02-07T10:46:56.862Z,5.91
2023-02-07T10:49:27.205Z,5.90
2023-02-07T10:51:58.102Z,5.92
2023-02-07T10:54:27.295Z,5.92
2023-02-07T10:57:01.756Z,5.93
2023-02-07T10:59:38.639Z,5.94
2023-02-07T11:02:41.845Z,5.96
2023-02-07T11:05:30.022Z,5.97
2023-02-07T11:07:59.326Z,5.99
2023-02-07T11:10:32.244Z,5.99
2023-02-07T11:13:01.473Z,6.01
2023-02-07T11:15:37.788Z,6.02
2023-02-07T11:18:06.813Z,6.04
2023-02-07T11:20:37.836Z,6.04
2023-02-07T11:23:12.242Z,6.07
2023-02-07T11:25:44.041Z,6.09
2023-02-07T11:28:20.730Z,6.10
2023-02-07T11:30:53.297Z,6.14
2023-02-07T11:33:23.961Z,6.15
2023-02-07T11:36:12.634Z,6.18
2023-02-07T11:38:42.990Z,6.19
2023-02-07T11:41:21.211Z,6.22
2023-02-07T11:43:58.301Z,6.26
2023-02-07T11:46:34.553Z,6.27
2023-02-07T11:49:03.363Z,6.31
2023-02-07T11:51:33.581Z,6.33
2023-02-07T11:54:04.148Z,6.36
2023-02-07T11:56:38.025Z,6.38
2023-02-07T11:59:08.884Z,6.40
2023-02-07T12:01:37.823Z,6.38
2023-02-07T12:04:11.291Z,6.37
2023-02-07T12:06:42.987Z,6.37
2023-02-07T12:09:23.122Z,6.41
2023-02-07T12:11:56.806Z,6.46
2023-02-07T12:14:29.357Z,6.45
2023-02-07T12:17:00.621Z,6.50
2023-02-07T12:19:33.691Z,6.62
2023-02-07T12:22:07.807Z,6.82
2023-02-07T12:24:40.661Z,7.00
2023-02-07T12:27:15.633Z,7.23
2023-02-07T12:29:53.523Z,7.40
2023-02-07T12:32:28.585Z,7.48
2023-02-07T12:35:02.582Z,7.45
2023-02-07T12:37:38.663Z,7.37
2023-02-07T12:40:15.497Z,7.27
2023-02-07T12:42:48.378Z,7.21
2023-02-07T12:45:18.796Z,7.12
2023-02-07T12:47:56.851Z,7.10
2023-02-07T12:50:50.389Z,7.05
2023-02-07T12:53:34.460Z,7.02
2023-02-07T12:56:13.955Z,7.01
2023-02-07T12:58:53.605Z,7.01
2023-02-07T13:01:30.149Z,7.00
2023-02-07T13:04:33.535Z,7.01
2023-02-07T13:07:17.039Z,7.02
2023-02-07T13:09:53.223Z,7.01
2023-02-07T13:12:27.574Z,7.00
2023-02-07T13:15:09.660Z,6.99
2023-02-07T13:17:51.265Z,6.91
2023-02-07T13:20:45.424Z,6.98
2023-02-07T13:23:19.021Z,6.97
2023-02-07T13:25:50.448Z,6.98
2023-02-07T13:28:26.479Z,6.98
2023-02-07T13:30:57.459Z,6.98
2023-02-07T13:33:30.887Z,7.01
2023-02-07T13:36:04.412Z,7.03
2023-02-07T13:38:44.742Z,7.02
2023-02-07T13:41:20.451Z,7.04
2023-02-07T13:44:09.059Z,6.99
2023-02-07T13:46:58.785Z,7.08
2023-02-07T13:49:38.312Z,7.10
2023-02-07T13:52:12.001Z,7.12
2023-02-07T13:54:48.440Z,7.26
2023-02-07T13:57:58.354Z,7.42
2023-02-07T14:00:27.954Z,7.70
2023-02-07T14:03:00.395Z,7.90
2023-02-07T14:05:31.610Z,8.09
2023-02-07T14:08:02.548Z,8.27
2023-02-07T14:10:48.936Z,8.44
2023-02-07T14:13:28.564Z,8.41
2023-02-07T14:16:06.149Z,8.33
2023-02-07T14:18:42.758Z,8.20
2023-02-07T14:21:31.740Z,8.07
2023-02-07T14:24:05.799Z,7.95
2023-02-07T14:26:59.703Z,7.87
2023-02-07T14:29:57.113Z,7.81
2023-02-07T14:32:31.658Z,7.75
2023-02-07T14:35:04.637Z,7.72
2023-02-07T14:37:40.859Z,7.70
2023-02-07T14:40:19.313Z,7.65
2023-02-07T14:42:56.504Z,7.69
2023-02-07T14:45:25.372Z,7.86
2023-02-07T14:47:53.416Z,8.04
2023-02-07T14:50:31.749Z,8.21
2023-02-07T14:53:01.630Z,8.23
2023-02-07T14:55:35.412Z,8.18
2023-02-07T14:58:08.585Z,8.11
2023-02-07T15:00:41.213Z,8.00
2023-02-07T15:03:13.847Z,7.94
2023-02-07T15:05:51.261Z,7.82
2023-02-07T15:08:20.820Z,7.82
2023-02-07T15:10:56.022Z,7.76
2023-02-07T15:13:27.871Z,7.72
2023-02-07T15:15:58.132Z,7.79
2023-02-07T15:18:29.791Z,7.98
2023-02-07T15:21:00.046Z,8.05
2023-02-07T15:23:29.812Z,8.25
2023-02-07T15:25:59.456Z,8.49
2023-02-07T15:28:29.266Z,8.68
2023-02-07T15:31:03.241Z,8.87
2023-02-07T15:33:36.842Z,8.90
2023-02-07T15:36:08.329Z,8.78
2023-02-07T15:38:36.082Z,8.66
2023-02-07T15:41:04.821Z,8.50
2023-02-07T15:43:34.603Z,8.36
2023-02-07T15:46:08.828Z,8.26
2023-02-07T15:48:48.865Z,8.16
2023-02-07T15:51:20.255Z,8.10
2023-02-07T15:53:51.833Z,8.02
2023-02-07T15:56:20.205Z,7.95
2023-02-07T15:58:49.859Z,7.91
2023-02-07T16:01:25.644Z,7.86
2023-02-07T16:03:56.569Z,7.80
2023-02-07T16:06:27.490Z,7.77
2023-02-07T16:08:56.997Z,7.75
2023-02-07T16:11:44.369Z,7.71
2023-02-07T16:14:19.400Z,7.68
2023-02-07T16:16:52.614Z,7.64
2023-02-07T16:19:25.069Z,7.60
2023-02-07T16:22:03.868Z,7.59
2023-02-07T16:24:35.288Z,7.54
2023-02-07T16:27:04.576Z,7.53
2023-02-07T16:29:32.392Z,7.49
2023-02-07T16:32:00.301Z,7.47
2023-02-07T16:34:28.144Z,7.43
2023-02-07T16:36:57.554Z,7.43
2023-02-07T16:39:25.313Z,7.42
2023-02-07T16:41:56.809Z,7.41
2023-02-07T16:44:26.420Z,7.43
2023-02-07T16:46:54.196Z,7.41
2023-02-07T16:49:24.024Z,7.40
2023-02-07T16:51:52.355Z,7.39
2023-02-07T16:54:21.646Z,7.39
2023-02-07T16:56:53.745Z,7.38
2023-02-07T16:59:23.351Z,7.32
2023-02-07T17:01:54.103Z,7.35
2023-02-07T17:04:22.672Z,7.48
2023-02-07T17:06:50.898Z,7.63
2023-02-07T17:09:23.073Z,7.82
2023-02-07T17:11:51.643Z,8.01
2023-02-07T17:14:19.503Z,8.21
2023-02-07T17:16:47.464Z,8.37
2023-02-07T17:19:18.286Z,8.54
2023-02-07T17:21:46.339Z,8.68
2023-02-07T17:24:14.833Z,8.82
2023-02-07T17:26:46.277Z,8.94
2023-02-07T17:29:16.175Z,8.93
2023-02-07T17:31:44.763Z,8.84
2023-02-07T17:34:12.677Z,8.68
2023-02-07T17:36:44.224Z,8.45
2023-02-07T17:39:13.497Z,8.31
2023-02-07T17:41:41.225Z,8.19
2023-02-07T17:44:10.342Z,8.07
2023-02-07T17:46:38.421Z,7.96
2023-02-07T17:49:13.709Z,7.91
2023-02-07T17:51:41.440Z,7.85
2023-02-07T17:54:09.128Z,7.80
2023-02-07T17:56:39.315Z,7.77
2023-02-07T17:59:10.065Z,7.72
2023-02-07T18:01:39.260Z,7.67
2023-02-07T18:04:07.089Z,7.61
2023-02-07T18:06:34.886Z,7.58
2023-02-07T18:09:02.647Z,7.51
2023-02-07T18:11:30.448Z,7.48
2023-02-07T18:13:58.261Z,7.45
2023-02-07T18:16:27.639Z,7.41
2023-02-07T18:18:58.111Z,7.38
2023-02-07T18:21:26.424Z,7.33
2023-02-07T18:23:56.291Z,7.31
2023-02-07T18:26:24.110Z,7.45
2023-02-07T18:28:51.885Z,7.63
2023-02-07T18:31:23.144Z,7.84
2023-02-07T18:33:52.785Z,8.06
2023-02-07T18:36:23.426Z,8.21
2023-02-07T18:38:51.710Z,8.42
2023-02-07T18:41:23.358Z,8.55
2023-02-07T18:43:51.634Z,8.70
2023-02-07T18:46:21.693Z,8.76
2023-02-07T18:48:54.419Z,8.67
2023-02-07T18:51:24.715Z,8.53
2023-02-07T18:53:54.837Z,8.33
2023-02-07T18:56:26.584Z,8.19
2023-02-07T18:58:56.672Z,8.09
2023-02-07T19:01:26.403Z,7.96
2023-02-07T19:03:56.258Z,7.92
2023-02-07T19:06:27.501Z,7.84
2023-02-07T19:08:56.566Z,7.80
2023-02-07T19:11:24.441Z,7.72
2023-02-07T19:13:52.159Z,7.67
2023-02-07T19:16:22.215Z,7.61
2023-02-07T19:18:50.649Z,7.56
2023-02-07T19:21:21.690Z,7.51
2023-02-07T19:23:51.179Z,7.48
2023-02-07T19:26:18.946Z,7.42
2023-02-07T19:28:46.669Z,7.38
2023-02-07T19:31:18.169Z,7.34
2023-02-07T19:33:46.616Z,7.29
2023-02-07T19:36:14.562Z,7.28
2023-02-07T19:38:42.537Z,7.24
2023-02-07T19:41:11.640Z,7.19
2023-02-07T19:43:39.444Z,7.16
2023-02-07T19:46:07.194Z,7.15
2023-02-07T19:48:34.979Z,7.10
2023-02-07T19:51:04.218Z,7.08
2023-02-07T19:53:33.113Z,7.05
2023-02-07T19:56:03.141Z,7.03
2023-02-07T19:58:33.665Z,7.02
2023-02-07T20:01:02.087Z,7.01
2023-02-07T20:03:30.170Z,6.98
2023-02-07T20:06:00.573Z,6.97
2023-02-07T20:08:28.704Z,6.95
2023-02-07T20:10:56.395Z,6.94
2023-02-07T20:13:24.140Z,6.91
2023-02-07T20:15:53.234Z,6.89
2023-02-07T20:18:20.978Z,6.89
2023-02-07T20:20:48.741Z,6.87
2023-02-07T20:23:16.479Z,6.83
2023-02-07T20:25:44.256Z,6.83
2023-02-07T20:28:12.099Z,6.83
2023-02-07T20:30:45.885Z,6.80
2023-02-07T20:33:15.015Z,6.79
2023-02-07T20:35:42.689Z,6.78
2023-02-07T20:38:10.411Z,6.76
2023-02-07T20:40:38.506Z,6.76
2023-02-07T20:43:06.376Z,6.75
2023-02-07T20:45:34.143Z,6.73
2023-02-07T20:48:01.992Z,6.72
2023-02-07T20:50:31.108Z,6.71
2023-02-07T20:52:58.984Z,6.67
2023-02-07T20:55:26.963Z,6.67
2023-02-07T20:57:54.629Z,6.65
2023-02-07T21:00:22.333Z,6.66
2023-02-07T21:02:50.090Z,6.63
2023-02-07T21:05:18.036Z,6.55
2023-02-07T21:07:47.185Z,6.60
2023-02-07T21:10:15.067Z,6.62
2023-02-07T21:12:42.782Z,6.60
2023-02-07T21:15:11.172Z,6.58
2023-02-07T21:17:39.091Z,6.59
2023-02-07T21:20:07.616Z,6.57
2023-02-07T21:22:35.705Z,6.57
2023-02-07T21:25:04.973Z,6.55
2023-02-07T21:27:32.624Z,6.53
2023-02-07T21:30:00.367Z,6.51
2023-02-07T21:32:28.078Z,6.51
2023-02-07T21:34:55.800Z,6.51
2023-02-07T21:37:24.929Z,6.50
2023-02-07T21:39:52.690Z,6.48
2023-02-07T21:42:21.793Z,6.47
2023-02-07T21:44:49.515Z,6.43
2023-02-07T21:47:17.204Z,6.41
2023-02-07T21:49:44.916Z,6.41
2023-02-07T21:52:12.600Z,6.41
2023-02-07T21:54:40.328Z,6.39
2023-02-07T21:57:07.984Z,6.38
2023-02-07T21:59:37.212Z,6.36
2023-02-07T22:02:04.949Z,6.34
2023-02-07T22:04:32.657Z,6.33
2023-02-07T22:07:00.399Z,6.33
2023-02-07T22:09:28.072Z,6.31
2023-02-07T22:11:55.850Z,6.30
2023-02-07T22:14:24.835Z,6.28
2023-02-07T22:16:54.393Z,6.27
2023-02-07T22:19:22.901Z,6.27
2023-02-07T22:21:51.526Z,6.26
2023-02-07T22:24:21.147Z,6.24
2023-02-07T22:26:48.842Z,6.25
2023-02-07T22:29:16.677Z,6.23
2023-02-07T22:31:44.585Z,6.20
2023-02-07T22:34:14.756Z,6.18
2023-02-07T22:36:44.109Z,6.18
2023-02-07T22:39:13.639Z,6.17
2023-02-07T22:41:41.366Z,6.16
2023-02-07T22:44:09.291Z,6.17
2023-02-07T22:46:37.156Z,6.13
2023-02-07T22:49:04.929Z,6.13
2023-02-07T22:51:36.481Z,6.13
2023-02-07T22:54:06.536Z,6.13
2023-02-07T22:56:35.248Z,6.12
2023-02-07T22:59:03.022Z,6.12
2023-02-07T23:01:36.633Z,6.08
2023-02-07T23:04:05.817Z,6.01
2023-02-07T23:06:35.158Z,6.08
2023-02-07T23:09:05.177Z,6.08
2023-02-07T23:11:33.294Z,6.07
2023-02-07T23:14:01.120Z,6.05
2023-02-07T23:16:30.644Z,6.04
2023-02-07T23:19:02.871Z,6.04
2023-02-07T23:21:30.736Z,6.04
2023-02-07T23:23:59.802Z,6.04
2023-02-07T23:26:28.656Z,6.04
2023-02-07T23:28:56.350Z,6.02
2023-02-07T23:31:25.817Z,5.99
2023-02-07T23:33:54.181Z,6.02
2023-02-07T23:36:22.589Z,6.00
2023-02-07T23:38:50.987Z,6.00
2023-02-07T23:41:20.543Z,5.99
2023-02-07T23:43:48.368Z,5.99
2023-02-07T23:46:17.376Z,5.96
2023-02-07T23:48:45.512Z,5.96
2023-02-07T23:51:14.066Z,5.94
2023-02-07T23:53:42.651Z,5.93
2023-02-07T23:56:12.202Z,5.91
2023-02-07T23:58:41.337Z,5.91
